Time;durP1;ratioP1;P1;durP2;ratioP2;P2;SDS_P1;SDS_P2;PMS_P1;PMS_P2;Temp;Humidity;BMP_temperature;BMP_pressure;BME280_temperature;BME280_humidity;BME280_pressure;Samples;Min_cycle;Max_cycle;Signal;HPM_P1;HPM_P2
2022/07/04 00:00:55;;;;;;;5.80;4.28;;;14.80;99.90;;;;;;5094302;28;20058;-47
2022/07/04 00:03:20;;;;;;;6.65;3.70;;;14.80;99.90;;;;;;5113445;28;20467;-48
2022/07/04 00:05:46;;;;;;;6.85;3.90;;;14.80;99.90;;;;;;5112864;28;20062;-45
2022/07/04 00:08:12;;;;;;;7.22;3.83;;;14.80;99.90;;;;;;5113286;28;20040;-47
2022/07/04 00:10:39;;;;;;;8.07;4.03;;;14.80;99.90;;;;;;5113064;28;20082;-48
2022/07/04 00:13:05;;;;;;;6.00;3.80;;;14.80;99.90;;;;;;5112767;28;20075;-47
2022/07/04 00:15:31;;;;;;;6.57;3.72;;;14.70;99.90;;;;;;5112771;28;20046;-51
2022/07/04 00:17:57;;;;;;;6.43;4.10;;;14.70;99.90;;;;;;5112181;28;20096;-51
2022/07/04 00:20:23;;;;;;;6.15;3.72;;;14.60;99.90;;;;;;5112856;27;20039;-47
2022/07/04 00:22:49;;;;;;;5.55;3.67;;;14.60;99.90;;;;;;5112539;28;20509;-48
2022/07/04 00:25:14;;;;;;;4.70;3.60;;;14.60;99.90;;;;;;5094412;28;20028;-48
2022/07/04 00:27:40;;;;;;;7.82;3.90;;;14.50;99.90;;;;;;5111832;28;20032;-49
2022/07/04 00:30:06;;;;;;;6.65;4.05;;;14.50;99.90;;;;;;5112513;28;20043;-47
2022/07/04 00:32:32;;;;;;;6.88;4.00;;;14.50;99.90;;;;;;5112934;28;20028;-50
2022/07/04 00:34:58;;;;;;;6.20;3.53;;;14.50;99.90;;;;;;5112656;28;20046;-48
2022/07/04 00:37:24;;;;;;;5.90;3.95;;;14.50;99.90;;;;;;5112498;28;20110;-48
2022/07/04 00:39:49;;;;;;;5.45;3.83;;;14.40;99.90;;;;;;5112263;28;20096;-46
2022/07/04 00:42:15;;;;;;;5.72;3.97;;;14.30;99.90;;;;;;5112350;28;20063;-48
2022/07/04 00:44:41;;;;;;;6.75;3.80;;;14.40;99.90;;;;;;5112649;28;20047;-48
2022/07/04 00:47:07;;;;;;;6.82;4.20;;;14.30;99.90;;;;;;5112318;28;20071;-50
2022/07/04 00:49:33;;;;;;;7.90;4.18;;;14.30;99.90;;;;;;5111585;28;20031;-46
2022/07/04 00:52:00;;;;;;;6.63;4.20;;;14.30;99.90;;;;;;5111457;27;20035;-46
2022/07/04 00:54:31;;;;;;;6.65;4.85;;;14.30;99.90;;;;;;5112385;28;20036;-51
2022/07/04 00:56:58;;;;;;;7.90;5.00;;;14.20;99.90;;;;;;5111837;28;20070;-49
2022/07/04 00:59:24;;;;;;;6.75;4.75;;;14.20;99.90;;;;;;5112325;28;20043;-48
2022/07/04 01:01:50;;;;;;;6.60;4.95;;;14.10;99.90;;;;;;5112086;28;20087;-48
2022/07/04 01:04:17;;;;;;;7.57;5.03;;;14.00;99.90;;;;;;5111582;28;20043;-49
2022/07/04 01:06:44;;;;;;;8.60;5.22;;;14.00;99.90;;;;;;5125699;27;20170;-45
2022/07/04 01:09:10;;;;;;;10.55;5.70;;;13.90;99.90;;;;;;5132345;27;20043;-48
2022/07/04 01:11:36;;;;;;;7.85;5.38;;;13.90;99.90;;;;;;5099527;28;20395;-47
2022/07/04 01:14:02;;;;;;;6.57;5.15;;;13.90;99.90;;;;;;5112030;28;20043;-49
2022/07/04 01:16:28;;;;;;;9.25;5.63;;;13.90;99.90;;;;;;5093330;28;20039;-47
2022/07/04 01:18:54;;;;;;;6.55;5.38;;;13.80;99.90;;;;;;5110154;27;20068;-49
2022/07/04 01:21:20;;;;;;;6.97;5.45;;;13.70;99.90;;;;;;5093098;28;20040;-48
2022/07/04 01:23:47;;;;;;;9.52;6.30;;;13.80;99.90;;;;;;5111885;28;20126;-46
2022/07/04 01:26:12;;;;;;;8.48;5.95;;;13.70;99.90;;;;;;5111537;28;20059;-47
2022/07/04 01:28:38;;;;;;;8.88;5.50;;;13.70;99.90;;;;;;5111390;28;20063;-48
2022/07/04 01:31:04;;;;;;;7.80;5.70;;;13.70;99.90;;;;;;5111304;28;20547;-47
2022/07/04 01:33:30;;;;;;;8.07;5.93;;;13.70;99.90;;;;;;5111561;28;20078;-46
2022/07/04 01:35:56;;;;;;;7.53;5.53;;;13.70;99.90;;;;;;5111286;28;20443;-51
2022/07/04 01:38:22;;;;;;;7.28;6.18;;;13.70;99.90;;;;;;5110064;28;20039;-48
2022/07/04 01:40:48;;;;;;;9.68;6.07;;;13.70;99.90;;;;;;5111301;28;20470;-48
2022/07/04 01:43:13;;;;;;;8.90;6.50;;;13.70;99.90;;;;;;5111432;28;20034;-47
2022/07/04 01:45:39;;;;;;;7.60;6.28;;;13.60;99.90;;;;;;5111244;27;20497;-46
2022/07/04 01:48:07;;;;;;;9.32;6.30;;;13.60;99.90;;;;;;5109331;28;20967;-43
2022/07/04 01:50:33;;;;;;;7.20;6.28;;;13.60;99.90;;;;;;5093047;28;20226;-47
2022/07/04 01:52:59;;;;;;;8.90;6.55;;;13.60;99.90;;;;;;5111385;28;20039;-48
2022/07/04 01:55:25;;;;;;;7.50;6.38;;;13.60;99.90;;;;;;5091459;28;20050;-49
2022/07/04 01:57:50;;;;;;;9.05;6.20;;;13.50;99.90;;;;;;5109548;28;20043;-46
2022/07/04 02:03:00;;;;;;;7.95;5.93;;;13.60;99.90;;;;;;5111926;27;20085;-48
2022/07/04 02:05:26;;;;;;;8.45;6.78;;;13.50;99.90;;;;;;5110540;28;20055;-47
2022/07/04 02:07:52;;;;;;;8.82;6.05;;;13.50;99.90;;;;;;5092675;28;20142;-49
2022/07/04 02:10:18;;;;;;;7.90;5.90;;;13.50;99.90;;;;;;5110857;28;20427;-45
2022/07/04 02:13:02;;;;;;;9.27;5.90;;;13.60;99.90;;;;;;5110864;28;20020;-48
2022/07/04 02:15:38;;;;;;;8.88;6.07;;;13.40;99.90;;;;;;5110750;28;20087;-49
2022/07/04 02:18:06;;;;;;;7.47;6.03;;;13.50;99.90;;;;;;5091527;28;20039;-44
2022/07/04 02:20:34;;;;;;;7.80;6.25;;;13.40;99.90;;;;;;5110568;28;20039;-45
2022/07/04 02:23:00;;;;;;;8.57;6.47;;;13.40;99.90;;;;;;5110125;28;20040;-48
2022/07/04 02:25:26;;;;;;;8.98;5.90;;;13.40;99.90;;;;;;5092284;28;20035;-48
2022/07/04 02:27:52;;;;;;;8.38;6.55;;;13.40;99.90;;;;;;5091975;28;20040;-50
2022/07/04 02:30:18;;;;;;;9.07;6.28;;;13.30;99.90;;;;;;5110736;28;20072;-46
2022/07/04 02:32:44;;;;;;;9.48;6.80;;;13.50;99.90;;;;;;5110145;28;20493;-48
2022/07/04 02:35:10;;;;;;;10.82;7.22;;;13.40;99.90;;;;;;5110846;28;20084;-50
2022/07/04 02:37:36;;;;;;;10.13;6.63;;;13.30;99.90;;;;;;5110169;28;20066;-48
2022/07/04 02:40:03;;;;;;;11.40;7.20;;;13.50;99.90;;;;;;5110327;28;20042;-48
2022/07/04 02:42:30;;;;;;;9.40;6.82;;;13.50;99.90;;;;;;5107805;28;20035;-46
2022/07/04 02:44:56;;;;;;;10.80;7.25;;;13.40;99.90;;;;;;5109716;28;20284;-46
2022/07/04 02:47:21;;;;;;;8.57;7.05;;;13.40;99.90;;;;;;5110148;28;20038;-51
2022/07/04 02:49:47;;;;;;;8.55;7.07;;;13.30;99.90;;;;;;5090282;28;20058;-47
2022/07/04 02:52:13;;;;;;;9.27;7.15;;;13.40;99.90;;;;;;5090755;28;20487;-47
2022/07/04 02:54:39;;;;;;;9.75;7.43;;;13.30;99.90;;;;;;5110295;28;20479;-48
2022/07/04 02:57:05;;;;;;;11.48;7.50;;;13.30;99.90;;;;;;5109070;28;20071;-46
2022/07/04 02:59:31;;;;;;;11.90;8.05;;;13.40;99.90;;;;;;5110083;28;20063;-49
2022/07/04 03:01:56;;;;;;;9.63;7.70;;;13.20;99.90;;;;;;5109882;28;20047;-45
2022/07/04 03:04:22;;;;;;;10.90;9.15;;;13.30;99.90;;;;;;5091575;28;20184;-51
2022/07/04 03:06:48;;;;;;;12.60;9.57;;;13.20;99.90;;;;;;5110344;28;20047;-46
2022/07/04 03:09:13;;;;;;;13.18;9.43;;;13.30;99.90;;;;;;5109628;28;20039;-52
2022/07/04 03:11:39;;;;;;;10.95;9.18;;;13.30;99.90;;;;;;5109845;28;20089;-47
2022/07/04 03:14:05;;;;;;;12.18;9.18;;;13.30;99.90;;;;;;5109694;28;20038;-47
2022/07/04 03:16:30;;;;;;;11.75;8.85;;;13.30;99.90;;;;;;5129337;28;20031;-47
2022/07/04 03:18:56;;;;;;;10.70;8.65;;;13.30;99.90;;;;;;5130239;28;20473;-50
2022/07/04 03:21:22;;;;;;;11.10;8.48;;;13.30;99.90;;;;;;5130732;28;20490;-49
2022/07/04 03:23:57;;;;;;;12.43;9.75;;;13.20;99.90;;;;;;5130678;28;20035;-48
2022/07/04 03:26:31;;;;;;;10.52;9.38;;;13.20;99.90;;;;;;5117797;28;20024;-49
2022/07/04 03:28:57;;;;;;;14.30;8.52;;;13.10;99.90;;;;;;5118186;27;20155;-49
2022/07/04 03:31:24;;;;;;;11.00;9.10;;;13.10;99.90;;;;;;5113729;28;20043;-48
2022/07/04 03:33:50;;;;;;;13.10;8.43;;;13.10;99.90;;;;;;5113520;28;20039;-46
2022/07/04 03:36:17;;;;;;;10.90;8.82;;;13.10;99.90;;;;;;5113749;27;20118;-49
2022/07/04 03:38:43;;;;;;;12.00;8.57;;;13.20;99.90;;;;;;5113557;28;20046;-46
2022/07/04 03:41:09;;;;;;;13.63;9.93;;;13.20;99.90;;;;;;5113502;28;20047;-48
2022/07/04 03:43:35;;;;;;;12.10;9.35;;;13.10;99.90;;;;;;5113486;28;20046;-48
2022/07/04 03:46:01;;;;;;;11.68;8.95;;;13.10;99.90;;;;;;5113640;28;20035;-48
2022/07/04 03:48:26;;;;;;;11.80;8.80;;;13.20;99.90;;;;;;5113274;28;20070;-48
2022/07/04 03:50:52;;;;;;;12.88;8.93;;;13.00;99.90;;;;;;5113621;28;20092;-46
2022/07/04 03:53:19;;;;;;;11.02;8.30;;;13.10;99.90;;;;;;5132492;27;20042;-49
2022/07/04 03:55:45;;;;;;;13.77;8.60;;;13.10;99.90;;;;;;5108248;28;20067;-51
2022/07/04 03:58:11;;;;;;;13.15;9.10;;;13.10;99.90;;;;;;5113526;28;20039;-51
2022/07/04 04:00:37;;;;;;;10.52;8.07;;;13.10;99.90;;;;;;5113380;28;20032;-50
2022/07/04 04:05:25;;;;;;;13.27;9.32;;;13.20;99.90;;;;;;5113343;27;20046;-47
2022/07/04 04:05:48;;;;;;;14.40;9.23;;;13.20;99.90;;;;;;5112777;27;20043;-45
2022/07/04 04:08:14;;;;;;;10.88;8.98;;;13.20;99.90;;;;;;5113300;28;20274;-48
2022/07/04 04:10:40;;;;;;;12.25;8.90;;;13.30;99.90;;;;;;5111750;28;20549;-47
2022/07/04 04:13:06;;;;;;;11.18;8.85;;;13.20;99.90;;;;;;5112762;28;20040;-49
2022/07/04 04:15:31;;;;;;;11.68;8.95;;;13.20;99.90;;;;;;5113040;28;20432;-46
2022/07/04 04:17:57;;;;;;;10.35;8.65;;;13.20;99.90;;;;;;5113078;28;20463;-45
2022/07/04 04:20:22;;;;;;;11.90;8.25;;;13.10;99.90;;;;;;5112415;27;20062;-49
2022/07/04 04:22:49;;;;;;;12.30;8.75;;;13.20;99.90;;;;;;5113036;28;20521;-49
2022/07/04 04:25:16;;;;;;;11.32;8.48;;;13.20;99.90;;;;;;5112217;28;20055;-47
2022/07/04 04:27:42;;;;;;;11.20;8.57;;;13.20;99.90;;;;;;5112777;27;20390;-47
2022/07/04 04:30:08;;;;;;;11.35;8.18;;;13.30;99.90;;;;;;5094497;28;20035;-47
2022/07/04 04:32:34;;;;;;;13.68;9.27;;;13.40;99.90;;;;;;5112707;28;20024;-49
2022/07/04 04:35:00;;;;;;;14.32;8.18;;;13.40;99.90;;;;;;5112762;28;20494;-49
2022/07/04 04:37:25;;;;;;;12.02;9.02;;;13.50;99.90;;;;;;5112595;28;20744;-49
2022/07/04 04:39:51;;;;;;;12.30;8.35;;;13.40;99.90;;;;;;5110315;28;20071;-47
2022/07/04 04:42:17;;;;;;;10.77;8.05;;;13.60;99.90;;;;;;5112433;27;20122;-47
2022/07/04 04:44:43;;;;;;;12.65;8.38;;;13.40;99.90;;;;;;5093906;28;20043;-49
2022/07/04 04:47:09;;;;;;;10.85;7.78;;;13.50;99.90;;;;;;5110683;28;20075;-47
2022/07/04 04:49:34;;;;;;;10.13;7.90;;;13.60;99.90;;;;;;5112006;28;20039;-50
2022/07/04 04:52:00;;;;;;;15.05;8.40;;;13.60;99.90;;;;;;5112435;28;20039;-46
2022/07/04 04:54:26;;;;;;;12.50;8.38;;;13.70;99.90;;;;;;5112084;28;20711;-49
2022/07/04 04:56:51;;;;;;;11.52;7.80;;;13.70;99.90;;;;;;5110440;28;20045;-47
2022/07/04 04:59:17;;;;;;;10.73;8.20;;;13.80;99.90;;;;;;5093622;27;20714;-49
2022/07/04 05:01:42;;;;;;;11.38;7.55;;;13.80;99.90;;;;;;5111850;28;20036;-49
2022/07/04 05:04:08;;;;;;;11.63;7.78;;;13.90;99.90;;;;;;5112228;28;20119;-45
2022/07/04 05:06:34;;;;;;;10.88;7.25;;;13.80;99.90;;;;;;5111515;28;20056;-47
2022/07/04 05:09:00;;;;;;;8.65;6.80;;;13.90;99.90;;;;;;5112132;28;20032;-45
2022/07/04 05:11:26;;;;;;;10.77;7.80;;;13.80;99.90;;;;;;5111750;28;20039;-48
2022/07/04 05:13:52;;;;;;;12.43;8.05;;;13.90;99.90;;;;;;5111893;28;20114;-47
2022/07/04 05:16:17;;;;;;;11.20;7.07;;;14.00;99.90;;;;;;5111275;28;20138;-47
2022/07/04 05:18:43;;;;;;;14.88;7.78;;;14.10;99.90;;;;;;5093285;28;20029;-49
2022/07/04 05:21:09;;;;;;;10.57;7.60;;;14.00;99.90;;;;;;5113936;27;20041;-51
2022/07/04 05:23:34;;;;;;;10.90;7.32;;;14.20;99.90;;;;;;5096697;27;20039;-48
2022/07/04 05:26:00;;;;;;;10.70;7.93;;;14.20;99.90;;;;;;5105136;28;20420;-50
2022/07/04 05:28:25;;;;;;;12.32;7.95;;;14.20;99.90;;;;;;5111579;28;20463;-49
2022/07/04 05:30:51;;;;;;;10.70;7.47;;;14.20;99.90;;;;;;5110570;28;20050;-49
2022/07/04 05:33:17;;;;;;;9.57;7.55;;;14.40;99.90;;;;;;5109588;28;20035;-48
2022/07/04 05:35:43;;;;;;;12.82;8.05;;;14.50;99.90;;;;;;5111345;28;20118;-51
2022/07/04 05:38:09;;;;;;;12.27;7.18;;;14.40;99.90;;;;;;5111449;28;20542;-45
2022/07/04 05:40:34;;;;;;;12.52;7.65;;;14.50;99.90;;;;;;5110135;28;20039;-49
2022/07/04 05:43:00;;;;;;;9.95;6.85;;;14.70;99.90;;;;;;5110934;28;20032;-47
2022/07/04 05:45:26;;;;;;;11.38;7.13;;;14.60;99.90;;;;;;5111105;28;20036;-47
2022/07/04 05:47:51;;;;;;;10.50;6.40;;;14.70;99.90;;;;;;5111186;28;20035;-49
2022/07/04 05:50:17;;;;;;;12.98;7.22;;;14.70;99.90;;;;;;5110604;28;20428;-46
2022/07/04 05:52:43;;;;;;;10.38;7.00;;;14.90;99.90;;;;;;5109071;28;20035;-47
2022/07/04 05:55:09;;;;;;;14.50;7.10;;;15.00;99.90;;;;;;5110990;28;20039;-50
2022/07/04 05:57:34;;;;;;;9.73;6.80;;;15.10;99.90;;;;;;5130241;27;20035;-47
2022/07/04 06:00:01;;;;;;;10.63;7.00;;;15.40;99.90;;;;;;5110792;27;20030;-47
2022/07/04 06:02:26;;;;;;;11.65;6.93;;;15.50;99.90;;;;;;5126322;27;20035;-47
2022/07/04 06:04:52;;;;;;;11.85;6.57;;;15.60;99.90;;;;;;5131358;27;20041;-51
2022/07/04 06:07:18;;;;;;;10.98;6.60;;;15.80;99.90;;;;;;5130869;27;20302;-50
2022/07/04 06:09:45;;;;;;;9.50;6.03;;;15.80;99.90;;;;;;5130961;27;20110;-49
2022/07/04 06:12:10;;;;;;;11.27;5.60;;;15.70;99.90;;;;;;5106628;28;20047;-49
2022/07/04 06:14:36;;;;;;;10.57;5.70;;;15.60;99.90;;;;;;5110324;28;20494;-50
2022/07/04 06:17:02;;;;;;;15.18;6.28;;;15.60;99.90;;;;;;5100636;28;20130;-46
2022/07/04 06:19:28;;;;;;;9.35;6.32;;;15.60;99.90;;;;;;5093909;28;20055;-47
2022/07/04 06:21:53;;;;;;;11.15;5.90;;;15.60;99.90;;;;;;5094691;28;20040;-49
2022/07/04 06:24:19;;;;;;;12.10;7.30;;;15.60;99.90;;;;;;5095150;28;20040;-51
2022/07/04 06:26:45;;;;;;;11.23;6.25;;;15.70;99.90;;;;;;5095589;28;20042;-48
2022/07/04 06:29:10;;;;;;;12.85;6.70;;;15.80;99.90;;;;;;5094919;28;20039;-49
2022/07/04 06:31:36;;;;;;;10.63;6.53;;;15.80;99.90;;;;;;5092564;28;20038;-47
2022/07/04 06:36:46;;;;;;;;;;;16.00;99.90;;;;;;5093308;28;20046;-48
2022/07/04 06:39:12;;;;;;;13.13;6.68;;;16.00;99.90;;;;;;5093531;28;20291;-48
2022/07/04 06:41:37;;;;;;;11.48;6.72;;;16.10;99.90;;;;;;5093069;28;20463;-48
2022/07/04 06:44:04;;;;;;;17.10;6.68;;;16.20;99.90;;;;;;5095896;28;20046;-48
2022/07/04 06:46:30;;;;;;;13.65;6.90;;;16.40;99.90;;;;;;5096862;28;20040;-48
2022/07/04 06:48:56;;;;;;;14.35;6.80;;;16.30;99.90;;;;;;5074751;28;20036;-50
2022/07/04 06:51:22;;;;;;;11.93;6.18;;;16.40;99.90;;;;;;5073081;28;20046;-48
2022/07/04 06:53:48;;;;;;;12.63;6.63;;;16.60;99.90;;;;;;5074707;28;20039;-49
2022/07/04 06:56:14;;;;;;;12.38;5.97;;;16.60;99.90;;;;;;5095084;28;20127;-49
2022/07/04 06:58:40;;;;;;;15.65;7.18;;;16.70;99.90;;;;;;5093148;28;20047;-51
2022/07/04 07:01:06;;;;;;;11.65;6.93;;;16.60;99.90;;;;;;5095256;28;20048;-48
2022/07/04 07:03:32;;;;;;;13.32;7.18;;;16.90;99.90;;;;;;5094607;28;20083;-51
2022/07/04 07:05:57;;;;;;;17.05;7.82;;;16.90;99.90;;;;;;5097583;28;20051;-51
2022/07/04 07:08:23;;;;;;;11.18;6.60;;;17.00;99.90;;;;;;5099338;28;20042;-47
2022/07/04 07:10:49;;;;;;;16.85;7.57;;;17.00;99.90;;;;;;5097380;28;20046;-47
2022/07/04 07:13:14;;;;;;;14.40;8.02;;;17.00;99.90;;;;;;5099390;28;20477;-47
2022/07/04 07:15:40;;;;;;;13.75;6.68;;;17.20;99.90;;;;;;5099377;28;20062;-49
2022/07/04 07:18:07;;;;;;;12.38;6.63;;;17.20;99.90;;;;;;5098262;28;20050;-48
2022/07/04 07:20:32;;;;;;;14.48;6.22;;;17.30;99.90;;;;;;5099289;28;20069;-49
2022/07/04 07:23:01;;;;;;;15.15;6.78;;;17.40;99.90;;;;;;5080786;28;20413;-50
2022/07/04 07:25:26;;;;;;;12.63;7.00;;;17.60;99.90;;;;;;5100109;28;20081;-47
2022/07/04 07:27:52;;;;;;;11.93;6.30;;;17.60;99.90;;;;;;5099563;28;20027;-48
2022/07/04 07:30:18;;;;;;;13.45;7.00;;;17.80;99.90;;;;;;5099462;28;20033;-51
2022/07/04 07:32:46;;;;;;;11.55;5.43;;;17.80;99.90;;;;;;5096604;28;20038;-49
2022/07/04 07:35:12;;;;;;;13.27;4.50;;;17.70;99.90;;;;;;5097299;28;20493;-46
2022/07/04 07:37:38;;;;;;;11.15;4.45;;;17.70;99.90;;;;;;5098534;28;20027;-47
2022/07/04 07:40:04;;;;;;;9.00;4.15;;;17.80;99.90;;;;;;5099202;28;20036;-52
2022/07/04 07:42:30;;;;;;;9.88;3.92;;;17.80;99.90;;;;;;5097761;28;20338;-50
2022/07/04 07:44:56;;;;;;;11.10;4.47;;;17.80;99.90;;;;;;5096364;28;20036;-50
2022/07/04 07:47:22;;;;;;;10.02;3.78;;;17.70;99.90;;;;;;5096735;28;20035;-51
2022/07/04 07:49:48;;;;;;;8.63;3.97;;;17.80;99.90;;;;;;5097898;28;20084;-51
2022/07/04 07:52:15;;;;;;;9.13;3.78;;;17.80;99.90;;;;;;5079019;28;20043;-49
2022/07/04 07:54:41;;;;;;;9.60;4.22;;;17.70;99.90;;;;;;5095018;28;20413;-53
2022/07/04 07:57:06;;;;;;;11.10;4.30;;;17.80;99.90;;;;;;5096614;28;20039;-49
2022/07/04 07:59:32;;;;;;;7.70;4.03;;;18.00;99.90;;;;;;5094889;28;20049;-52
2022/07/04 08:01:58;;;;;;;12.30;4.43;;;18.20;99.90;;;;;;5093092;28;20043;-50
2022/07/04 08:04:37;;;;;;;7.70;3.92;;;18.10;99.90;;;;;;5097120;28;20038;-50
2022/07/04 08:07:08;;;;;;;12.68;4.50;;;18.00;99.90;;;;;;5094527;27;20062;-51
2022/07/04 08:09:36;;;;;;;11.68;3.75;;;18.10;99.90;;;;;;5094079;28;20040;-50
2022/07/04 08:12:03;;;;;;;7.00;3.13;;;18.10;99.90;;;;;;5097373;28;20032;-48
2022/07/04 08:14:29;;;;;;;15.48;3.55;;;18.20;99.90;;;;;;5092372;28;20043;-50
2022/07/04 08:16:56;;;;;;;8.98;2.97;;;18.30;99.90;;;;;;5096074;27;20517;-48
2022/07/04 08:19:22;;;;;;;12.02;3.47;;;18.50;99.90;;;;;;5075172;28;20092;-52
2022/07/04 08:21:48;;;;;;;9.48;3.33;;;18.60;99.90;;;;;;5093315;28;20585;-50
2022/07/04 08:24:15;;;;;;;6.32;2.63;;;18.70;99.90;;;;;;5096264;28;20114;-51
2022/07/04 08:26:41;;;;;;;6.22;2.10;;;18.80;99.90;;;;;;5096015;28;20062;-52
2022/07/04 08:29:06;;;;;;;6.78;2.47;;;19.00;99.90;;;;;;5088601;28;20028;-52
2022/07/04 08:31:32;;;;;;;5.97;2.33;;;19.00;99.90;;;;;;5089011;28;20039;-51
2022/07/04 08:33:58;;;;;;;6.28;2.30;;;19.20;99.90;;;;;;5094246;28;20035;-50
2022/07/04 08:36:23;;;;;;;8.15;2.22;;;19.20;99.90;;;;;;5096950;28;20036;-48
2022/07/04 08:38:49;;;;;;;9.52;2.45;;;19.20;99.90;;;;;;5097942;28;20071;-49
2022/07/04 08:41:17;;;;;;;7.13;2.17;;;19.40;99.90;;;;;;5074683;28;20039;-50
2022/07/04 08:43:48;;;;;;;4.60;1.90;;;19.40;99.90;;;;;;5097466;28;20388;-50
2022/07/04 08:46:17;;;;;;;6.35;1.55;;;19.50;99.90;;;;;;5072400;28;20032;-52
2022/07/04 08:48:51;;;;;;;9.23;2.03;;;19.70;99.90;;;;;;5093554;28;20048;-48
2022/07/04 08:51:25;;;;;;;5.10;2.28;;;19.90;99.90;;;;;;5096245;27;20054;-50
2022/07/04 08:53:57;;;;;;;7.53;2.22;;;19.90;99.90;;;;;;5097268;27;20024;-51
2022/07/04 08:59:08;;;;;;;7.38;1.98;;;19.60;99.90;;;;;;5092844;28;20043;-48
2022/07/04 09:01:35;;;;;;;7.15;2.00;;;19.30;99.90;;;;;;5075683;28;20580;-50
2022/07/04 09:04:01;;;;;;;4.13;1.42;;;19.20;99.90;;;;;;5074994;28;20039;-49
2022/07/04 09:06:29;;;;;;;5.13;1.73;;;19.30;99.90;;;;;;5077166;28;20055;-48
2022/07/04 09:08:54;;;;;;;5.63;1.70;;;19.50;99.90;;;;;;5096019;28;20387;-51
2022/07/04 09:11:20;;;;;;;3.97;1.30;;;19.70;99.90;;;;;;5077230;28;20036;-48
2022/07/04 09:13:47;;;;;;;5.00;1.33;;;19.60;99.90;;;;;;5096760;28;20046;-50
2022/07/04 09:16:12;;;;;;;6.68;1.52;;;20.00;99.90;;;;;;5075996;28;20051;-52
2022/07/04 09:18:38;;;;;;;4.45;1.25;;;20.40;99.90;;;;;;5094844;28;20032;-50
2022/07/04 09:21:07;;;;;;;4.22;1.20;;;20.50;99.90;;;;;;5094106;28;20046;-47
2022/07/04 09:23:39;;;;;;;3.90;1.08;;;20.70;99.90;;;;;;5075189;28;20035;-48
2022/07/04 09:26:07;;;;;;;3.72;1.00;;;20.90;99.90;;;;;;5094213;28;20504;-49
2022/07/04 09:28:33;;;;;;;2.65;0.80;;;20.80;99.90;;;;;;5096163;28;20458;-50
2022/07/04 09:30:59;;;;;;;2.22;0.80;;;20.70;99.90;;;;;;5095663;28;20089;-52
2022/07/04 09:33:52;;;;;;;2.63;1.15;;;20.80;99.90;;;;;;5096429;28;20039;-51
2022/07/04 09:36:21;;;;;;;6.43;1.38;;;21.10;99.90;;;;;;5097582;27;20546;-47
2022/07/04 09:39:18;;;;;;;2.63;0.80;;;21.30;99.90;;;;;;5097612;28;20051;-49
2022/07/04 09:42:00;;;;;;;3.67;0.80;;;21.60;99.90;;;;;;5096235;28;20096;-50
2022/07/04 09:44:28;;;;;;;5.15;0.88;;;21.20;99.90;;;;;;5097229;28;20144;-50
2022/07/04 09:46:54;;;;;;;2.40;0.80;;;20.70;99.90;;;;;;5096741;28;20118;-48
2022/07/04 09:49:21;;;;;;;3.78;0.80;;;20.50;99.90;;;;;;5097131;28;20458;-51
2022/07/04 09:51:49;;;;;;;5.07;0.90;;;20.20;99.90;;;;;;5095600;28;20040;-48
2022/07/04 09:54:28;;;;;;;2.15;0.65;;;20.00;99.90;;;;;;5093291;28;20028;-52
2022/07/04 09:56:56;;;;;;;3.50;1.00;;;20.10;99.90;;;;;;5090382;28;20067;-50
2022/07/04 09:59:23;;;;;;;2.33;0.63;;;20.20;99.90;;;;;;5093710;27;20032;-50
2022/07/04 10:01:49;;;;;;;6.20;1.10;;;20.50;99.90;;;;;;5093711;28;20040;-50
2022/07/04 10:04:15;;;;;;;2.95;0.80;;;20.40;99.90;;;;;;5092725;28;20035;-50
2022/07/04 10:06:43;;;;;;;9.45;1.30;;;20.60;99.90;;;;;;5095353;28;20054;-48
2022/07/04 10:09:14;;;;;;;2.30;1.00;;;20.50;99.90;;;;;;5095844;28;20027;-48
2022/07/04 10:11:41;;;;;;;4.35;1.30;;;20.60;99.90;;;;;;5096667;28;21754;-49
2022/07/04 10:14:09;;;;;;;2.95;1.23;;;20.70;99.90;;;;;;5095775;28;20036;-50
2022/07/04 10:16:37;;;;;;;2.63;1.00;;;20.60;99.90;;;;;;5092580;28;20024;-48
2022/07/04 10:19:04;;;;;;;2.67;0.90;;;20.70;99.90;;;;;;5095299;28;20537;-48
2022/07/04 10:21:30;;;;;;;2.20;0.88;;;20.90;99.90;;;;;;5093046;28;20032;-48
2022/07/04 10:23:56;;;;;;;2.38;0.88;;;20.90;99.90;;;;;;5097407;28;20040;-49
2022/07/04 10:26:23;;;;;;;2.25;1.00;;;21.00;99.90;;;;;;5097531;28;20056;-52
2022/07/04 10:28:51;;;;;;;4.15;1.00;;;21.00;99.90;;;;;;5099020;28;20379;-48
2022/07/04 10:31:21;;;;;;;3.75;0.73;;;21.20;99.90;;;;;;5097943;28;20146;-49
2022/07/04 10:33:47;;;;;;;2.70;0.80;;;21.30;99.90;;;;;;5096725;28;20039;-50
2022/07/04 10:36:20;;;;;;;2.55;0.90;;;21.60;99.90;;;;;;5098174;28;20055;-52
2022/07/04 10:38:55;;;;;;;4.80;1.50;;;21.70;99.90;;;;;;5097997;28;20055;-52
2022/07/04 10:41:23;;;;;;;3.08;0.90;;;21.80;99.90;;;;;;5098265;28;20502;-49
2022/07/04 10:44:13;;;;;;;2.35;0.80;;;21.40;99.90;;;;;;5098788;28;20352;-50
2022/07/04 10:46:49;;;;;;;2.03;0.70;;;21.10;99.90;;;;;;5098471;28;20031;-50
2022/07/04 10:49:15;;;;;;;3.50;0.88;;;21.20;99.90;;;;;;5077151;28;20036;-50
2022/07/04 10:51:45;;;;;;;4.18;0.70;;;21.60;99.90;;;;;;5097159;28;20030;-47
2022/07/04 10:54:10;;;;;;;2.50;0.68;;;21.50;99.90;;;;;;5092841;28;20061;-51
2022/07/04 10:56:43;;;;;;;4.55;1.00;;;21.50;99.90;;;;;;5096365;28;20040;-47
2022/07/04 10:59:15;;;;;;;3.92;0.90;;;21.70;99.90;;;;;;5093918;28;21240;-47
2022/07/04 11:02:03;;;;;;;3.63;1.10;;;21.80;99.90;;;;;;5087724;28;20048;-51
2022/07/04 11:04:47;;;;;;;3.42;0.90;;;22.10;99.90;;;;;;5093023;28;20036;-49
2022/07/04 11:07:20;;;;;;;2.85;0.90;;;22.00;99.90;;;;;;5089961;28;20056;-47
2022/07/04 11:10:06;;;;;;;2.35;0.90;;;21.90;99.90;;;;;;5089747;28;20043;-50
2022/07/04 11:12:32;;;;;;;2.20;0.80;;;22.10;99.90;;;;;;5089295;28;20035;-48
2022/07/04 11:14:57;;;;;;;3.70;1.00;;;22.60;99.90;;;;;;5090742;28;20034;-50
2022/07/04 11:17:33;;;;;;;3.95;0.95;;;22.10;99.90;;;;;;5093953;28;20039;-47
2022/07/04 11:20:00;;;;;;;2.95;0.93;;;22.30;99.90;;;;;;5090658;28;20039;-47
2022/07/04 11:22:26;;;;;;;2.03;0.90;;;22.20;99.90;;;;;;5094621;28;20044;-51
2022/07/04 11:24:53;;;;;;;2.40;0.75;;;22.30;99.90;;;;;;5095124;28;20039;-48
2022/07/04 11:27:22;;;;;;;2.75;0.80;;;22.20;99.90;;;;;;5074290;28;20114;-51
2022/07/04 11:29:55;;;;;;;2.80;0.90;;;22.40;99.90;;;;;;5095943;28;20119;-49
2022/07/04 11:32:29;;;;;;;3.88;1.00;;;22.40;99.90;;;;;;5095426;28;20050;-49
2022/07/04 11:34:55;;;;;;;2.15;0.70;;;22.40;99.90;;;;;;5096063;28;20423;-47
2022/07/04 11:37:21;;;;;;;2.17;0.80;;;22.50;99.90;;;;;;5093349;28;20042;-49
2022/07/04 11:39:51;;;;;;;2.22;0.85;;;22.70;99.90;;;;;;5093604;28;20039;-51
2022/07/04 11:45:07;;;;;;;4.07;1.05;;;22.50;99.90;;;;;;5093227;28;20028;-49
2022/07/04 11:47:40;;;;;;;2.20;0.70;;;22.70;99.90;;;;;;5097469;28;20031;-51
2022/07/04 11:50:09;;;;;;;3.67;1.40;;;22.70;99.90;;;;;;5099570;28;20042;-51
2022/07/04 11:52:37;;;;;;;4.07;0.85;;;22.50;99.90;;;;;;5101127;27;20035;-48
2022/07/04 11:55:04;;;;;;;3.05;1.00;;;22.80;99.90;;;;;;5094548;28;20127;-51
2022/07/04 11:57:37;;;;;;;2.10;0.73;;;22.90;99.90;;;;;;5101186;28;20359;-48
2022/07/04 12:00:08;;;;;;;3.70;0.90;;;22.60;98.80;;;;;;5101490;28;20043;-48
2022/07/04 12:02:35;;;;;;;2.75;0.80;;;22.70;99.90;;;;;;5101168;28;20487;-48
2022/07/04 12:05:03;;;;;;;4.22;0.90;;;22.50;98.80;;;;;;5093932;27;20071;-48
2022/07/04 12:07:33;;;;;;;4.30;1.10;;;22.50;98.90;;;;;;5091535;28;20052;-50
2022/07/04 12:10:09;;;;;;;5.45;1.00;;;22.70;99.90;;;;;;5098251;28;20028;-48
2022/07/04 12:12:35;;;;;;;3.88;0.70;;;22.70;99.10;;;;;;5099491;28;20040;-51
2022/07/04 12:15:07;;;;;;;3.10;0.70;;;22.90;99.90;;;;;;5097333;28;20489;-51
2022/07/04 12:17:39;;;;;;;2.33;0.70;;;23.00;98.80;;;;;;5098165;28;20031;-51
2022/07/04 12:20:12;;;;;;;2.92;0.70;;;22.50;98.00;;;;;;5098405;27;20035;-49
2022/07/04 12:22:43;;;;;;;4.38;0.88;;;22.90;98.60;;;;;;5100238;28;20047;-49
2022/07/04 12:25:26;;;;;;;2.58;0.70;;;22.70;97.50;;;;;;5100281;28;20040;-52
2022/07/04 12:28:04;;;;;;;2.38;0.73;;;23.00;97.90;;;;;;5100683;28;20042;-49
2022/07/04 12:30:39;;;;;;;2.53;0.50;;;23.00;97.30;;;;;;5101266;28;20051;-46
2022/07/04 12:33:08;;;;;;;3.80;0.65;;;22.90;96.40;;;;;;5078186;28;20629;-52
2022/07/04 12:35:44;;;;;;;2.83;0.60;;;23.00;96.40;;;;;;5098603;28;20035;-50
2022/07/04 12:38:21;;;;;;;3.60;0.90;;;23.00;96.10;;;;;;5099862;28;20028;-49
2022/07/04 12:40:54;;;;;;;6.00;0.70;;;23.30;96.60;;;;;;5099809;28;20050;-48
2022/07/04 12:43:22;;;;;;;4.13;0.90;;;23.30;97.20;;;;;;5099951;27;20456;-50
2022/07/04 12:45:56;;;;;;;2.60;0.95;;;23.20;96.60;;;;;;5100164;28;20471;-46
2022/07/04 12:48:27;;;;;;;4.50;0.80;;;23.60;95.90;;;;;;5097419;28;20084;-52
2022/07/04 12:50:54;;;;;;;2.45;0.60;;;23.60;95.80;;;;;;5098030;28;20058;-50
2022/07/04 12:53:21;;;;;;;2.35;0.50;;;23.60;96.00;;;;;;5092482;28;20038;-49
2022/07/04 12:55:49;;;;;;;2.22;0.65;;;23.60;95.80;;;;;;5094937;28;20071;-49